createdAt,value
2023-08-08T04:59:07.203Z,10.91
2023-08-08T05:00:09.962Z,10.99
2023-08-08T06:59:23.381Z,15.49
2023-08-08T07:01:41.352Z,15.65
2023-08-08T07:03:58.552Z,15.90
2023-08-08T07:04:59.986Z,15.77
2023-08-08T07:07:18.166Z,15.98
2023-08-08T07:08:20.485Z,16.20
2023-08-08T07:09:22.931Z,16.18
2023-08-08T07:11:59.148Z,15.74
2023-08-08T07:13:00.731Z,15.83
2023-08-08T07:14:02.516Z,15.79
2023-08-08T07:15:04.626Z,15.86
2023-08-08T07:16:06.148Z,15.93
2023-08-08T07:17:07.584Z,16.06
2023-08-08T07:18:09.434Z,15.97
2023-08-08T07:19:12.900Z,16.08
2023-08-08T07:20:16.898Z,16.31
2023-08-08T07:21:18.256Z,16.35
2023-08-08T07:22:19.806Z,16.39
2023-08-08T07:23:21.183Z,16.28
2023-08-08T07:24:22.676Z,16.42
2023-08-08T07:25:24.458Z,16.53
2023-08-08T07:26:25.903Z,16.55
2023-08-08T07:27:28.108Z,16.38
2023-08-08T07:28:29.499Z,16.44
2023-08-08T07:29:31.338Z,16.59
2023-08-08T07:30:32.824Z,16.46
2023-08-08T07:31:34.463Z,16.38
2023-08-08T07:32:37.051Z,16.68
2023-08-08T07:33:38.552Z,16.59
2023-08-08T07:34:39.983Z,16.83
2023-08-08T07:35:41.500Z,16.71
2023-08-08T07:36:42.908Z,17.08
2023-08-08T07:37:44.832Z,17.48
2023-08-08T07:38:46.216Z,17.75
2023-08-08T07:39:48.842Z,17.82
2023-08-08T07:40:50.205Z,17.51
2023-08-08T07:47:17.117Z,16.76
2023-08-08T07:48:18.600Z,16.92
2023-08-08T07:49:19.976Z,16.84
2023-08-08T07:52:32.905Z,17.01
2023-08-08T07:53:34.297Z,16.96
2023-08-08T07:54:35.932Z,16.79
2023-08-08T07:55:37.368Z,16.65
2023-08-08T07:57:50.014Z,16.71
2023-08-08T07:58:51.419Z,16.73
2023-08-08T08:01:03.372Z,16.81
2023-08-08T08:02:06.338Z,16.75
2023-08-08T08:03:08.173Z,16.69
2023-08-08T08:04:09.711Z,16.88
2023-08-08T08:05:11.764Z,16.91
2023-08-08T08:06:13.551Z,17.05
2023-08-08T08:07:14.936Z,17.27
2023-08-08T08:08:16.393Z,17.35
2023-08-08T08:09:17.905Z,17.50
2023-08-08T08:10:19.387Z,17.65
2023-08-08T08:11:21.012Z,17.67
2023-08-08T08:12:22.521Z,17.68
2023-08-08T08:13:23.956Z,17.68
2023-08-08T08:14:25.617Z,17.66
2023-08-08T08:15:27.340Z,17.64
2023-08-08T08:16:28.897Z,17.77
2023-08-08T08:17:30.465Z,17.77
2023-08-08T08:18:31.988Z,17.88
2023-08-08T08:19:33.421Z,17.68
2023-08-08T08:20:36.074Z,17.67
2023-08-08T08:21:37.497Z,17.74
2023-08-08T08:22:39.289Z,17.92
2023-08-08T08:23:41.051Z,17.58
2023-08-08T08:24:42.404Z,17.55
2023-08-08T08:25:43.918Z,17.63
2023-08-08T08:26:45.393Z,17.54
2023-08-08T08:27:47.008Z,17.50
2023-08-08T08:28:48.485Z,17.62
2023-08-08T08:29:50.446Z,17.74
2023-08-08T08:30:52.304Z,17.87
2023-08-08T08:31:53.727Z,18.19
2023-08-08T08:32:55.180Z,17.95
2023-08-08T08:33:56.571Z,18.11
2023-08-08T08:34:57.939Z,18.03
2023-08-08T08:35:59.309Z,17.88
2023-08-08T08:37:00.867Z,17.81
2023-08-08T08:38:02.425Z,17.86
2023-08-08T08:39:04.648Z,17.70
2023-08-08T08:40:06.747Z,17.78
2023-08-08T08:41:13.705Z,17.59
2023-08-08T08:42:17.481Z,17.43
2023-08-08T08:43:19.013Z,17.58
2023-08-08T08:44:22.488Z,17.92
2023-08-08T08:45:24.169Z,18.01
2023-08-08T08:46:27.299Z,18.20
2023-08-08T08:47:31.975Z,17.98
2023-08-08T08:48:33.574Z,17.76
2023-08-08T08:49:36.387Z,17.83
2023-08-08T08:50:39.855Z,18.00
2023-08-08T08:51:41.269Z,18.31
2023-08-08T08:52:43.973Z,18.49
2023-08-08T08:53:47.433Z,18.14
2023-08-08T08:54:49.022Z,18.05
2023-08-08T08:55:52.250Z,17.96
2023-08-08T08:56:53.897Z,17.96
2023-08-08T08:57:56.371Z,18.14
2023-08-08T08:58:57.819Z,18.43
2023-08-08T09:00:00.040Z,18.67
2023-08-08T09:01:02.327Z,18.77
2023-08-08T09:02:04.473Z,18.30
2023-08-08T09:03:06.325Z,18.15
2023-08-08T09:04:09.084Z,17.95
2023-08-08T09:05:12.861Z,17.67
2023-08-08T09:06:15.508Z,18.05
2023-08-08T09:07:21.446Z,18.40
2023-08-08T09:08:23.232Z,18.24
2023-08-08T09:09:24.802Z,18.32
2023-08-08T09:10:28.213Z,18.68
2023-08-08T09:11:29.612Z,18.53
2023-08-08T09:12:32.707Z,18.55
2023-08-08T09:13:41.118Z,18.83
2023-08-08T09:14:43.381Z,19.24
2023-08-08T09:15:49.239Z,19.17
2023-08-08T09:16:52.719Z,19.05
2023-08-08T09:17:54.913Z,19.09
2023-08-08T09:18:56.421Z,18.93
2023-08-08T09:19:59.673Z,19.08
2023-08-08T09:21:01.320Z,18.82
2023-08-08T09:22:02.930Z,18.47
2023-08-08T09:23:04.910Z,18.55
2023-08-08T09:24:06.576Z,18.92
2023-08-08T09:25:09.096Z,18.95
2023-08-08T09:26:11.187Z,19.30
2023-08-08T09:27:12.705Z,19.17
2023-08-08T09:28:14.185Z,19.45
2023-08-08T09:29:16.310Z,19.52
2023-08-08T09:30:18.586Z,19.47
2023-08-08T09:31:19.994Z,19.66
2023-08-08T09:32:21.510Z,19.51
2023-08-08T09:33:23.092Z,19.17
2023-08-08T09:34:27.432Z,18.77
2023-08-08T09:35:31.980Z,19.12
2023-08-08T09:36:34.759Z,19.30
2023-08-08T09:37:36.509Z,19.61
2023-08-08T09:38:38.106Z,20.04
2023-08-08T09:39:39.716Z,20.21
2023-08-08T09:40:41.640Z,20.22
2023-08-08T09:41:43.271Z,20.19
2023-08-08T09:42:44.897Z,19.73
2023-08-08T09:43:46.702Z,19.89
2023-08-08T09:44:48.096Z,19.87
2023-08-08T09:45:49.588Z,19.51
2023-08-08T09:46:51.129Z,19.56
2023-08-08T09:47:53.471Z,19.81
2023-08-08T09:48:56.161Z,19.90
2023-08-08T09:50:02.064Z,20.45
2023-08-08T09:51:05.622Z,20.31
2023-08-08T09:52:07.880Z,20.25
2023-08-08T09:53:09.968Z,20.08
2023-08-08T09:54:12.091Z,20.12
2023-08-08T09:55:15.015Z,19.94
2023-08-08T09:56:17.636Z,19.83
2023-08-08T09:57:19.507Z,19.69
2023-08-08T09:58:21.390Z,19.84
2023-08-08T09:59:23.099Z,19.97
2023-08-08T10:00:26.421Z,19.93
2023-08-08T10:01:28.418Z,19.71
2023-08-08T10:02:30.551Z,19.63
2023-08-08T10:03:33.460Z,20.17
2023-08-08T10:04:35.610Z,20.51
2023-08-08T10:05:38.261Z,20.68
2023-08-08T10:06:39.850Z,20.90
2023-08-08T10:07:42.496Z,20.83
2023-08-08T10:08:44.168Z,20.49
2023-08-08T10:09:45.663Z,20.64
2023-08-08T10:10:50.411Z,20.35
2023-08-08T10:11:52.595Z,20.23
2023-08-08T10:12:54.159Z,20.70
2023-08-08T10:13:56.002Z,21.01
2023-08-08T10:14:57.528Z,21.00
2023-08-08T10:16:04.657Z,20.89
2023-08-08T10:17:07.333Z,21.12
2023-08-08T10:18:08.887Z,20.97
2023-08-08T10:19:10.691Z,21.13
2023-08-08T10:20:12.885Z,20.91
2023-08-08T10:21:15.381Z,20.54
2023-08-08T10:22:23.501Z,20.41
2023-08-08T10:23:25.055Z,20.77
2023-08-08T10:24:26.587Z,20.87
2023-08-08T10:25:29.777Z,20.37
2023-08-08T10:26:31.549Z,20.12
2023-08-08T10:27:38.059Z,19.75
2023-08-08T10:28:39.464Z,19.79
2023-08-08T10:29:41.131Z,19.66
2023-08-08T10:30:57.042Z,19.94
2023-08-08T10:32:04.242Z,20.39
2023-08-08T10:33:05.951Z,20.06
2023-08-08T10:34:08.502Z,20.20
2023-08-08T10:35:12.536Z,20.70
2023-08-08T10:36:14.687Z,21.10
2023-08-08T10:37:19.047Z,21.01
2023-08-08T10:38:22.867Z,21.28
2023-08-08T10:39:25.970Z,21.35
2023-08-08T10:40:33.867Z,21.47
2023-08-08T10:41:45.965Z,21.33
2023-08-08T10:42:48.137Z,21.93
2023-08-08T10:43:58.291Z,20.76
2023-08-08T10:45:02.435Z,20.50
2023-08-08T10:46:14.171Z,20.65
2023-08-08T10:47:16.097Z,20.63
2023-08-08T10:48:19.348Z,20.58
2023-08-08T10:49:20.948Z,21.19
2023-08-08T10:50:25.348Z,20.90
2023-08-08T10:51:41.045Z,20.80
2023-08-08T10:52:55.865Z,20.64
2023-08-08T10:53:58.575Z,20.98
2023-08-08T10:55:00.164Z,21.06
2023-08-08T10:56:05.290Z,20.79
2023-08-08T10:57:17.209Z,20.48
2023-08-08T10:58:21.065Z,20.21
2023-08-08T10:59:28.983Z,20.32
2023-08-08T11:00:32.378Z,20.73
2023-08-08T11:01:34.228Z,21.39
2023-08-08T11:02:35.784Z,21.96
2023-08-08T11:03:41.250Z,21.94
2023-08-08T11:04:42.964Z,21.93
2023-08-08T11:05:48.258Z,22.11
2023-08-08T11:06:51.031Z,22.19
2023-08-08T11:07:53.075Z,21.62
2023-08-08T11:08:55.649Z,22.05
2023-08-08T11:09:57.070Z,22.39
2023-08-08T11:10:58.680Z,21.97
2023-08-08T11:12:00.773Z,22.12
2023-08-08T11:13:04.474Z,22.18
2023-08-08T11:14:17.032Z,22.38
2023-08-08T11:15:18.578Z,21.99
2023-08-08T11:16:20.754Z,21.60
2023-08-08T11:17:22.496Z,21.79
2023-08-08T11:18:24.042Z,21.26
2023-08-08T11:19:25.553Z,20.70
2023-08-08T11:20:30.825Z,20.51
2023-08-08T11:21:36.552Z,20.65
2023-08-08T11:22:37.916Z,21.21
2023-08-08T11:23:39.960Z,21.26
2023-08-08T11:24:41.462Z,21.32
2023-08-08T11:25:44.466Z,21.18
2023-08-08T11:26:48.169Z,21.69
2023-08-08T11:27:52.126Z,21.83
2023-08-08T11:28:53.588Z,21.77
2023-08-08T11:29:57.857Z,21.95
2023-08-08T11:31:00.483Z,22.02
2023-08-08T11:32:04.082Z,22.54
2023-08-08T11:34:13.031Z,22.27
2023-08-08T11:35:19.206Z,22.64
2023-08-08T11:36:20.679Z,23.05
2023-08-08T11:37:23.134Z,23.04
2023-08-08T11:38:24.979Z,22.58
2023-08-08T11:39:27.909Z,23.24
2023-08-08T11:40:30.685Z,23.43
2023-08-08T11:41:32.546Z,23.22
2023-08-08T11:42:34.434Z,22.79
2023-08-08T11:43:35.941Z,22.77
2023-08-08T11:44:38.185Z,22.44
2023-08-08T11:45:39.690Z,22.40
2023-08-08T11:46:47.887Z,22.59
2023-08-08T11:47:56.391Z,22.72
2023-08-08T11:49:08.186Z,23.04
2023-08-08T11:50:11.921Z,23.09
2023-08-08T11:51:16.377Z,22.49
2023-08-08T11:52:19.331Z,22.12
2023-08-08T11:53:21.140Z,21.78
2023-08-08T11:54:22.626Z,21.28
2023-08-08T11:55:30.676Z,21.58
2023-08-08T11:56:36.815Z,22.00
2023-08-08T11:57:39.846Z,21.48
2023-08-08T11:58:41.340Z,21.82
2023-08-08T11:59:42.831Z,21.65
2023-08-08T12:00:46.883Z,21.05
2023-08-08T12:01:50.318Z,20.80
2023-08-08T12:02:53.988Z,20.50
2023-08-08T12:03:55.972Z,20.59
2023-08-08T12:05:05.881Z,21.39
2023-08-08T12:06:17.367Z,21.65
2023-08-08T12:07:20.114Z,21.49
2023-08-08T12:08:22.042Z,21.28
2023-08-08T12:09:23.479Z,21.17
2023-08-08T12:10:25.322Z,21.21
2023-08-08T12:11:28.088Z,21.60
2023-08-08T12:12:29.570Z,21.67
2023-08-08T12:13:32.699Z,22.05
2023-08-08T12:14:51.247Z,21.88
2023-08-08T12:16:02.038Z,21.91
2023-08-08T12:17:04.030Z,21.55
2023-08-08T12:18:06.096Z,21.44
2023-08-08T12:19:12.032Z,21.61
2023-08-08T12:20:15.868Z,21.59
2023-08-08T12:21:17.290Z,21.89
2023-08-08T12:22:18.843Z,22.22
2023-08-08T12:23:20.431Z,22.10
2023-08-08T12:24:21.848Z,22.04
2023-08-08T12:25:23.458Z,22.56
2023-08-08T12:26:24.930Z,22.49
2023-08-08T12:27:26.822Z,22.88
2023-08-08T12:28:28.410Z,22.53
2023-08-08T12:29:29.872Z,22.12
2023-08-08T12:30:32.326Z,21.69
2023-08-08T12:31:34.064Z,21.55
2023-08-08T12:32:35.602Z,21.73
2023-08-08T12:33:37.072Z,21.68
2023-08-08T12:34:38.563Z,22.35
2023-08-08T12:35:40.216Z,22.40
2023-08-08T12:36:41.703Z,22.69
2023-08-08T12:37:43.329Z,22.78
2023-08-08T12:38:46.104Z,22.90
2023-08-08T12:39:47.624Z,23.00
2023-08-08T12:40:49.197Z,22.07
2023-08-08T12:41:50.618Z,21.77
2023-08-08T12:42:52.156Z,22.36
2023-08-08T12:43:53.990Z,22.63
2023-08-08T12:44:55.412Z,22.09
2023-08-08T12:45:56.814Z,21.38
2023-08-08T12:46:58.456Z,21.50
2023-08-08T12:48:00.480Z,21.54
2023-08-08T12:49:02.040Z,21.75
2023-08-08T12:50:05.115Z,21.66
2023-08-08T12:51:08.624Z,21.40
2023-08-08T12:52:10.146Z,21.07
2023-08-08T12:53:18.880Z,21.11
2023-08-08T13:01:37.133Z,22.17
2023-08-08T13:02:39.572Z,22.24
2023-08-08T13:03:45.276Z,22.58
2023-08-08T13:04:49.563Z,22.64
2023-08-08T13:05:51.430Z,22.55
2023-08-08T13:19:38.915Z,22.56
2023-08-08T13:23:35.332Z,21.64
2023-08-08T13:24:36.832Z,21.74
2023-08-08T13:25:38.484Z,21.00
2023-08-08T13:26:43.045Z,21.01
2023-08-08T13:27:44.485Z,21.90
2023-08-08T14:00:58.553Z,22.03
2023-08-08T14:02:00.466Z,21.89
2023-08-08T14:03:03.289Z,22.03
2023-08-08T14:04:05.566Z,22.06
2023-08-08T14:05:11.454Z,21.93
2023-08-08T14:06:12.940Z,22.42
2023-08-08T14:07:14.404Z,21.99
2023-08-08T14:08:16.647Z,21.50
2023-08-08T14:09:19.819Z,21.56
2023-08-08T14:10:21.642Z,21.92
2023-08-08T14:11:23.131Z,22.45
2023-08-08T14:12:24.543Z,22.53
2023-08-08T14:13:26.082Z,22.38
2023-08-08T14:14:27.490Z,21.76
2023-08-08T14:15:29.866Z,21.49
2023-08-08T14:16:31.336Z,21.13
2023-08-08T14:17:32.831Z,21.03
2023-08-08T14:18:34.359Z,20.72
2023-08-08T14:19:35.776Z,20.73
2023-08-08T14:20:37.795Z,20.50
2023-08-08T14:21:42.446Z,20.44
2023-08-08T14:22:47.663Z,20.42
2023-08-08T14:23:49.478Z,20.50
2023-08-08T14:24:51.050Z,20.67
2023-08-08T14:25:52.509Z,20.62
2023-08-08T14:26:53.937Z,20.55
2023-08-08T14:27:55.460Z,20.56
2023-08-08T14:28:56.989Z,20.42
2023-08-08T14:29:59.137Z,20.15
2023-08-08T14:31:00.504Z,19.89
2023-08-08T14:32:02.053Z,19.73
2023-08-08T14:33:03.948Z,19.61
2023-08-08T14:34:05.501Z,19.53
2023-08-08T14:35:09.600Z,19.48
2023-08-08T14:43:13.030Z,18.90
2023-08-08T14:45:59.397Z,18.95
2023-08-08T14:47:01.312Z,19.02
2023-08-08T14:48:03.059Z,19.30
2023-08-08T14:49:06.819Z,19.56
2023-08-08T14:50:09.277Z,19.96
2023-08-08T14:51:10.793Z,20.27
2023-08-08T14:52:12.274Z,20.35
2023-08-08T14:53:14.458Z,20.91
2023-08-08T14:54:16.125Z,20.95
2023-08-08T14:55:17.617Z,21.04
2023-08-08T14:56:19.042Z,20.73
2023-08-08T14:57:20.483Z,20.63
2023-08-08T14:58:22.252Z,20.29
2023-08-08T14:59:24.736Z,20.28
2023-08-08T15:00:26.421Z,20.63
2023-08-08T15:01:27.852Z,21.36
2023-08-08T15:02:29.488Z,21.87
2023-08-08T15:03:31.140Z,22.24
2023-08-08T15:04:33.894Z,21.96
2023-08-08T15:05:35.459Z,21.44
2023-08-08T15:06:39.199Z,21.19
2023-08-08T15:07:40.667Z,21.00
2023-08-08T15:08:43.559Z,20.68
2023-08-08T15:09:45.460Z,20.42
2023-08-08T15:10:46.842Z,20.21
2023-08-08T15:11:48.227Z,20.00
2023-08-08T15:24:35.172Z,18.97
2023-08-08T15:25:37.474Z,18.98
2023-08-08T15:26:38.917Z,19.01
2023-08-08T15:27:40.381Z,19.03
2023-08-08T15:28:41.772Z,19.06
2023-08-08T15:29:43.222Z,19.00
2023-08-08T15:30:44.681Z,19.04
2023-08-08T15:31:46.074Z,19.24
2023-08-08T15:32:48.637Z,19.17
2023-08-08T15:33:50.102Z,19.28
2023-08-08T15:34:51.533Z,19.31
2023-08-08T15:35:53.174Z,19.33
2023-08-08T15:36:55.236Z,19.50
2023-08-08T15:37:59.134Z,19.53
2023-08-08T15:39:00.680Z,19.83
2023-08-08T15:40:02.475Z,19.72
2023-08-08T15:41:04.006Z,19.81
2023-08-08T15:42:05.459Z,19.96
2023-08-08T15:43:07.177Z,20.01
2023-08-08T15:44:08.730Z,19.94
2023-08-08T15:45:12.061Z,19.80
2023-08-08T15:46:14.133Z,19.80
2023-08-08T15:47:15.920Z,19.89
2023-08-08T15:48:17.733Z,19.93
2023-08-08T15:49:19.720Z,19.99
2023-08-08T15:50:21.154Z,19.92
2023-08-08T15:51:22.535Z,19.72
2023-08-08T15:52:24.013Z,19.83
2023-08-08T15:53:25.572Z,20.49
2023-08-08T15:54:27.050Z,20.90
2023-08-08T15:55:28.542Z,20.74
2023-08-08T15:56:29.914Z,20.60
2023-08-08T15:57:32.275Z,20.56
2023-08-08T15:58:33.888Z,20.58
2023-08-08T15:59:35.280Z,20.74
2023-08-08T16:00:36.666Z,20.44
2023-08-08T16:01:38.426Z,20.48
2023-08-08T16:02:40.007Z,20.27
2023-08-08T16:03:41.482Z,20.01
2023-08-08T16:04:42.979Z,20.01
2023-08-08T16:05:44.327Z,20.37
2023-08-08T16:06:46.102Z,20.62
2023-08-08T16:07:47.573Z,21.00
2023-08-08T16:08:48.965Z,20.40
2023-08-08T16:09:50.546Z,20.42
2023-08-08T16:10:51.951Z,20.25
2023-08-08T16:11:53.648Z,20.04
2023-08-08T16:12:55.014Z,20.10
2023-08-08T16:13:56.465Z,20.19
2023-08-08T16:14:58.242Z,20.46
2023-08-08T16:16:00.891Z,20.87
2023-08-08T16:17:04.056Z,21.31
2023-08-08T16:18:06.433Z,21.14
2023-08-08T16:19:07.954Z,21.23
2023-08-08T16:20:10.002Z,21.25
2023-08-08T16:21:11.723Z,21.78
2023-08-08T16:22:13.207Z,22.07
2023-08-08T16:23:14.707Z,21.76
2023-08-08T16:24:16.211Z,21.62
2023-08-08T16:25:17.731Z,21.65
2023-08-08T16:26:19.272Z,21.21
2023-08-08T16:27:20.657Z,21.31
2023-08-08T16:28:22.054Z,21.17
2023-08-08T16:29:23.513Z,20.61
2023-08-08T16:30:25.050Z,20.21
2023-08-08T16:31:26.798Z,20.21
2023-08-08T16:32:28.571Z,20.39
2023-08-08T16:33:30.307Z,20.51
2023-08-08T16:34:32.193Z,20.69
2023-08-08T16:35:33.725Z,20.78
2023-08-08T16:36:36.924Z,20.86
2023-08-08T16:37:39.383Z,20.89
2023-08-08T16:38:40.792Z,20.85
2023-08-08T16:39:42.562Z,21.01
2023-08-08T16:40:43.994Z,21.04
2023-08-08T16:41:45.547Z,20.83
2023-08-08T16:42:46.910Z,20.62
2023-08-08T16:43:53.797Z,20.64
2023-08-08T16:44:55.236Z,20.94
2023-08-08T16:45:56.737Z,21.02
2023-08-08T16:46:58.316Z,21.18
2023-08-08T16:47:59.786Z,21.22
2023-08-08T16:49:01.381Z,20.94
2023-08-08T16:50:03.814Z,20.74
2023-08-08T16:51:05.436Z,20.33
2023-08-08T16:52:07.116Z,20.04
2023-08-08T16:53:08.696Z,19.87
2023-08-08T16:54:10.388Z,19.89
2023-08-08T16:55:11.948Z,19.68
2023-08-08T16:56:14.545Z,19.58
2023-08-08T16:57:16.048Z,19.58
2023-08-08T16:58:17.554Z,19.61
2023-08-08T16:59:19.243Z,19.58
2023-08-08T17:00:20.726Z,19.42
2023-08-08T17:01:22.263Z,19.36
2023-08-08T17:02:23.944Z,19.34
2023-08-08T17:03:26.885Z,19.31
2023-08-08T17:04:28.411Z,19.27
2023-08-08T17:05:29.857Z,19.30
2023-08-08T17:06:33.621Z,19.26
2023-08-08T17:07:35.863Z,19.25
2023-08-08T17:08:37.963Z,19.29
2023-08-08T17:09:39.610Z,19.23
2023-08-08T17:13:36.482Z,18.95
